Time;durP1;ratioP1;P1;durP2;ratioP2;P2;SDS_P1;SDS_P2;PMS_P1;PMS_P2;Temp;Humidity;BMP_temperature;BMP_pressure;BME280_temperature;BME280_humidity;BME280_pressure;Samples;Min_cycle;Max_cycle;Signal;HPM_P1;HPM_P2
2022/03/31 00:01:34;;;;;;;4.30;1.90;;;0.90;99.90;;;;;;4848804;29;20037;-89
2022/03/31 00:03:59;;;;;;;4.00;2.08;;;0.90;99.90;;;;;;4847952;29;20161;-89
2022/03/31 00:06:25;;;;;;;7.03;2.13;;;0.90;99.90;;;;;;4848132;29;20516;-89
2022/03/31 00:08:51;;;;;;;3.95;2.35;;;1.00;99.90;;;;;;4850154;29;20045;-89
2022/03/31 00:11:17;;;;;;;3.15;2.22;;;1.00;99.90;;;;;;4850054;29;20116;-89
2022/03/31 00:13:43;;;;;;;4.53;2.15;;;1.00;99.90;;;;;;4856096;29;20044;-88
2022/03/31 00:16:10;;;;;;;9.25;2.78;;;1.00;99.90;;;;;;4857857;29;20060;-90
2022/03/31 00:18:37;;;;;;;5.45;2.40;;;1.10;99.90;;;;;;4855960;29;20072;-89
2022/03/31 00:21:03;;;;;;;3.67;2.13;;;1.00;99.90;;;;;;4853439;29;20034;-88
2022/03/31 00:23:29;;;;;;;1.25;0.90;;;1.10;99.90;;;;;;4851853;29;20082;-89
2022/03/31 00:25:56;;;;;;;4.30;1.70;;;1.10;99.90;;;;;;4848487;29;20041;-88
2022/03/31 00:28:22;;;;;;;5.90;2.45;;;1.10;99.90;;;;;;4848205;29;20057;-88
2022/03/31 00:30:48;;;;;;;4.55;2.33;;;1.10;99.90;;;;;;4848272;29;20029;-89
2022/03/31 00:33:14;;;;;;;5.78;2.40;;;1.10;99.90;;;;;;4848511;29;20109;-88
2022/03/31 00:35:40;;;;;;;2.80;2.22;;;1.10;99.90;;;;;;4848198;29;20061;-89
2022/03/31 00:38:06;;;;;;;4.32;2.80;;;1.10;99.90;;;;;;4847587;29;20044;-88
2022/03/31 00:40:32;;;;;;;6.10;2.78;;;1.00;99.90;;;;;;4847818;29;20033;-87
2022/03/31 00:42:59;;;;;;;4.43;2.40;;;1.00;99.90;;;;;;4847717;29;20097;-88
2022/03/31 00:45:32;;;;;;;5.90;2.53;;;1.00;99.90;;;;;;4847412;29;20441;-88
2022/03/31 00:47:58;;;;;;;2.45;2.03;;;1.00;99.90;;;;;;4847213;29;20090;-88
2022/03/31 00:50:25;;;;;;;4.78;2.50;;;0.90;99.90;;;;;;4847538;29;20065;-87
2022/03/31 00:52:51;;;;;;;5.65;2.70;;;0.90;99.90;;;;;;4850147;29;20503;-88
2022/03/31 00:55:19;;;;;;;3.33;2.30;;;0.90;99.90;;;;;;4856014;29;20026;-89
2022/03/31 00:57:46;;;;;;;5.30;2.50;;;0.90;99.90;;;;;;4857225;29;20045;-90
2022/03/31 01:00:14;;;;;;;4.18;2.70;;;0.90;99.90;;;;;;4855122;29;20037;-89
2022/03/31 01:02:43;;;;;;;5.07;2.65;;;0.80;99.90;;;;;;4851541;29;20034;-89
2022/03/31 01:05:11;;;;;;;5.75;2.85;;;0.80;99.90;;;;;;4848899;29;20033;-89
2022/03/31 01:07:37;;;;;;;7.32;3.03;;;0.80;99.90;;;;;;4848131;29;20080;-89
2022/03/31 01:10:05;;;;;;;7.88;2.33;;;0.80;99.90;;;;;;4848129;29;20447;-89
2022/03/31 01:12:31;;;;;;;2.97;2.00;;;0.80;99.90;;;;;;4847722;29;20037;-89
2022/03/31 01:15:06;;;;;;;3.67;2.13;;;0.80;99.90;;;;;;4847189;29;20021;-89
2022/03/31 01:17:33;;;;;;;2.80;1.50;;;0.70;99.90;;;;;;4847082;29;20034;-89
2022/03/31 01:19:58;;;;;;;5.22;2.15;;;0.70;99.90;;;;;;4847172;29;20052;-88
2022/03/31 01:22:27;;;;;;;3.35;2.08;;;0.70;99.90;;;;;;4847354;29;20499;-88
2022/03/31 01:24:54;;;;;;;5.55;2.00;;;0.70;99.90;;;;;;4847066;29;20029;-89
2022/03/31 01:27:19;;;;;;;5.07;1.60;;;0.60;99.90;;;;;;4846744;29;20094;-89
2022/03/31 01:29:46;;;;;;;7.57;2.38;;;0.70;99.90;;;;;;4863165;29;20147;-90
2022/03/31 01:32:11;;;;;;;4.70;2.10;;;0.60;99.90;;;;;;4846617;29;20037;-89
2022/03/31 01:34:37;;;;;;;2.45;2.20;;;0.60;99.90;;;;;;4846496;29;20109;-89
2022/03/31 01:37:04;;;;;;;6.07;2.92;;;0.60;99.90;;;;;;4847057;29;20025;-90
2022/03/31 01:39:30;;;;;;;5.80;2.60;;;0.50;99.90;;;;;;4846549;29;20021;-89
2022/03/31 01:41:56;;;;;;;4.50;3.00;;;0.60;99.90;;;;;;4846592;29;20071;-89
2022/03/31 01:44:21;;;;;;;7.03;4.05;;;0.50;99.90;;;;;;4846596;29;20022;-89
2022/03/31 01:46:48;;;;;;;9.15;4.50;;;0.50;99.90;;;;;;4846061;29;20073;-88
2022/03/31 01:49:14;;;;;;;10.73;5.65;;;0.50;99.90;;;;;;4845875;29;20185;-90
2022/03/31 01:51:40;;;;;;;10.48;6.50;;;0.50;99.90;;;;;;4845600;29;20033;-89
2022/03/31 01:54:06;;;;;;;15.02;6.80;;;0.50;99.90;;;;;;4845697;29;20511;-88
2022/03/31 01:56:32;;;;;;;8.98;5.85;;;0.40;99.90;;;;;;4846429;29;20120;-89
2022/03/31 01:58:58;;;;;;;9.95;6.00;;;0.50;99.90;;;;;;4862453;29;20045;-89
2022/03/31 02:01:24;;;;;;;9.13;5.40;;;0.50;99.90;;;;;;4846015;29;20112;-88
2022/03/31 02:03:49;;;;;;;10.75;6.07;;;0.50;99.90;;;;;;4845840;29;20034;-89
2022/03/31 02:06:15;;;;;;;9.88;5.07;;;0.50;99.90;;;;;;4846035;29;20033;-88
2022/03/31 02:08:41;;;;;;;10.85;5.38;;;0.50;99.90;;;;;;4845786;29;20393;-89
2022/03/31 02:11:08;;;;;;;8.48;4.70;;;0.50;99.90;;;;;;4846118;29;20115;-87
2022/03/31 02:13:34;;;;;;;9.57;5.03;;;0.50;99.90;;;;;;4847083;29;20037;-88
2022/03/31 02:16:00;;;;;;;9.07;4.82;;;0.40;99.90;;;;;;4848806;29;20034;-88
2022/03/31 02:18:25;;;;;;;5.88;4.30;;;0.40;99.90;;;;;;4849352;29;20040;-89
2022/03/31 02:20:51;;;;;;;6.10;3.53;;;0.40;99.90;;;;;;4849560;29;20095;-88
2022/03/31 02:23:17;;;;;;;5.43;3.45;;;0.40;99.90;;;;;;4849122;29;20036;-88
2022/03/31 02:25:43;;;;;;;6.35;3.30;;;0.30;99.90;;;;;;4849184;29;20047;-88
2022/03/31 02:28:11;;;;;;;7.70;3.53;;;0.30;99.90;;;;;;4848894;29;20071;-89
2022/03/31 02:30:37;;;;;;;6.15;3.40;;;0.30;99.90;;;;;;4848699;29;20121;-88
2022/03/31 02:33:03;;;;;;;6.55;2.92;;;0.30;99.90;;;;;;4849569;29;20061;-88
2022/03/31 02:35:30;;;;;;;3.30;2.60;;;0.30;99.90;;;;;;4849372;29;20400;-89
2022/03/31 02:37:56;;;;;;;6.60;2.58;;;0.30;99.90;;;;;;4834109;29;20129;-88
2022/03/31 02:40:22;;;;;;;7.90;2.65;;;0.30;99.90;;;;;;4849434;29;20038;-88
2022/03/31 02:42:48;;;;;;;4.93;2.35;;;0.30;99.90;;;;;;4851296;29;20053;-88
2022/03/31 02:45:14;;;;;;;9.43;3.10;;;0.30;99.90;;;;;;4849555;29;20045;-87
2022/03/31 02:47:40;;;;;;;5.97;2.90;;;0.30;99.90;;;;;;4848401;29;20048;-88
2022/03/31 02:50:07;;;;;;;6.68;2.90;;;0.30;99.90;;;;;;4848975;29;20030;-88
2022/03/31 02:55:34;;;;;;;8.40;2.58;;;0.30;99.90;;;;;;4808518;29;20023;-88
2022/03/31 02:58:02;;;;;;;2.95;2.15;;;0.30;99.90;;;;;;4793013;29;20043;-88
2022/03/31 03:00:34;;;;;;;5.60;3.47;;;0.30;99.90;;;;;;4793376;29;20070;-89
2022/03/31 03:03:02;;;;;;;6.68;1.95;;;0.30;99.90;;;;;;4792996;29;20042;-88
2022/03/31 03:05:28;;;;;;;4.15;1.95;;;0.30;99.90;;;;;;4793024;29;20043;-88
2022/03/31 03:07:53;;;;;;;3.88;1.80;;;0.30;99.90;;;;;;4793162;29;20522;-88
2022/03/31 03:10:20;;;;;;;5.35;2.17;;;0.30;99.90;;;;;;4793259;29;20035;-89
2022/03/31 03:12:45;;;;;;;4.57;2.33;;;0.30;99.90;;;;;;4793128;29;20038;-89
2022/03/31 03:15:11;;;;;;;3.83;2.22;;;0.30;99.90;;;;;;4792797;29;20043;-89
2022/03/31 03:17:45;;;;;;;6.88;2.15;;;0.30;99.90;;;;;;4793137;29;20053;-89
2022/03/31 03:20:13;;;;;;;5.40;2.03;;;0.30;99.90;;;;;;4793021;29;20103;-89
2022/03/31 03:22:45;;;;;;;3.08;2.28;;;0.30;99.90;;;;;;4792691;29;20156;-88
2022/03/31 03:25:12;;;;;;;5.82;2.40;;;0.30;99.90;;;;;;4791672;29;20444;-88
2022/03/31 03:27:42;;;;;;;6.75;2.47;;;0.30;99.90;;;;;;4792143;29;20149;-88
2022/03/31 03:30:08;;;;;;;2.53;2.20;;;0.30;99.90;;;;;;4833484;29;20090;-88
2022/03/31 03:32:36;;;;;;;3.20;2.40;;;0.30;99.90;;;;;;4848145;29;20037;-89
2022/03/31 03:35:02;;;;;;;5.85;2.30;;;0.30;99.90;;;;;;4848044;29;20033;-89
2022/03/31 03:37:27;;;;;;;3.83;2.25;;;0.30;99.90;;;;;;4848548;29;20034;-88
2022/03/31 03:39:53;;;;;;;6.50;2.92;;;0.30;99.90;;;;;;4854332;29;20036;-88
2022/03/31 03:42:19;;;;;;;4.60;2.80;;;0.30;99.90;;;;;;4862810;29;20033;-88
2022/03/31 03:44:45;;;;;;;6.50;2.38;;;0.30;99.90;;;;;;4860796;29;20072;-87
2022/03/31 03:47:11;;;;;;;10.30;2.22;;;0.30;99.90;;;;;;4860229;29;20049;-87
2022/03/31 03:49:37;;;;;;;2.55;2.03;;;0.30;99.90;;;;;;4858487;29;20033;-88
2022/03/31 03:52:03;;;;;;;4.15;2.15;;;0.30;99.90;;;;;;4856330;29;20044;-88
2022/03/31 03:54:29;;;;;;;4.32;1.67;;;0.30;99.90;;;;;;4854326;29;20089;-88
2022/03/31 03:56:55;;;;;;;5.32;2.30;;;0.30;99.90;;;;;;4852968;29;20034;-89
2022/03/31 03:59:20;;;;;;;5.95;2.05;;;0.30;99.90;;;;;;4853436;29;20036;-87
2022/03/31 04:01:46;;;;;;;3.72;1.95;;;0.40;99.90;;;;;;4850514;29;20432;-88
2022/03/31 04:04:12;;;;;;;8.60;3.05;;;0.40;99.90;;;;;;4848076;29;20419;-88
2022/03/31 04:06:38;;;;;;;9.52;2.00;;;0.40;99.90;;;;;;4848691;29;20128;-87
2022/03/31 04:09:04;;;;;;;3.50;1.90;;;0.40;99.90;;;;;;4849403;29;20036;-89
2022/03/31 04:11:29;;;;;;;3.15;1.88;;;0.40;99.90;;;;;;4849557;29;20032;-88
2022/03/31 04:13:55;;;;;;;7.68;1.98;;;0.40;99.90;;;;;;4847564;29;20400;-89
2022/03/31 04:16:21;;;;;;;3.85;1.90;;;0.40;99.90;;;;;;4848071;29;20069;-88
2022/03/31 04:18:46;;;;;;;2.85;1.73;;;0.50;99.90;;;;;;4847525;29;20037;-88
2022/03/31 04:21:14;;;;;;;5.07;2.10;;;0.60;99.90;;;;;;4847581;29;20029;-89
2022/03/31 04:23:40;;;;;;;6.10;2.10;;;0.60;99.90;;;;;;4847528;29;20424;-88
2022/03/31 04:26:06;;;;;;;3.45;1.85;;;0.60;99.90;;;;;;4846836;29;20120;-88
2022/03/31 04:28:32;;;;;;;1.25;1.15;;;0.60;99.90;;;;;;4846805;29;20084;-89
2022/03/31 04:30:58;;;;;;;3.72;1.60;;;0.60;99.90;;;;;;4847360;29;20056;-88
2022/03/31 04:33:26;;;;;;;3.92;1.50;;;0.50;99.90;;;;;;4848269;29;20052;-88
2022/03/31 04:35:52;;;;;;;4.05;2.75;;;0.50;99.90;;;;;;4847394;29;20033;-88
2022/03/31 04:38:17;;;;;;;8.38;1.75;;;0.50;99.90;;;;;;4846606;29;20030;-88
2022/03/31 04:40:43;;;;;;;5.03;2.00;;;0.40;99.90;;;;;;4846736;29;20026;-89
2022/03/31 04:43:09;;;;;;;5.90;1.88;;;0.40;99.90;;;;;;4846790;29;20037;-89
2022/03/31 04:45:35;;;;;;;8.40;1.38;;;0.40;99.90;;;;;;4846605;29;20150;-88
2022/03/31 04:48:00;;;;;;;2.42;1.48;;;0.50;99.90;;;;;;4846458;29;20042;-89
2022/03/31 04:50:26;;;;;;;5.97;1.55;;;0.50;99.90;;;;;;4846516;29;20032;-88
2022/03/31 04:52:52;;;;;;;3.78;1.33;;;0.50;99.90;;;;;;4846800;29;20504;-88
2022/03/31 04:55:18;;;;;;;2.92;1.35;;;0.50;99.90;;;;;;4846512;29;20063;-88
2022/03/31 04:57:44;;;;;;;2.92;1.40;;;0.50;99.90;;;;;;4846541;29;20599;-88
2022/03/31 05:00:10;;;;;;;5.03;1.50;;;0.60;99.90;;;;;;4846613;29;20033;-88
2022/03/31 05:02:36;;;;;;;4.65;1.60;;;0.60;99.90;;;;;;4846646;29;20034;-88
2022/03/31 05:05:02;;;;;;;8.60;1.67;;;0.60;99.90;;;;;;4846373;29;20033;-88
2022/03/31 05:07:28;;;;;;;3.28;1.65;;;0.60;99.90;;;;;;4846391;29;20487;-88
2022/03/31 05:09:54;;;;;;;2.58;1.40;;;0.60;99.90;;;;;;4846172;29;20547;-88
2022/03/31 05:12:20;;;;;;;3.13;1.40;;;0.60;99.90;;;;;;4846256;29;20040;-89
2022/03/31 05:14:46;;;;;;;3.10;1.83;;;0.60;99.90;;;;;;4846187;29;20060;-89
2022/03/31 05:17:11;;;;;;;3.40;1.40;;;0.50;99.90;;;;;;4846552;29;20053;-88
2022/03/31 05:19:38;;;;;;;3.53;1.73;;;0.60;99.90;;;;;;4846314;29;20025;-88
2022/03/31 05:22:04;;;;;;;3.05;1.55;;;0.60;99.90;;;;;;4845388;29;20040;-89
2022/03/31 05:24:30;;;;;;;3.15;1.67;;;0.60;99.90;;;;;;4844916;29;20030;-90
2022/03/31 05:26:56;;;;;;;3.85;2.03;;;0.60;99.90;;;;;;4843903;29;20042;-89
2022/03/31 05:29:22;;;;;;;4.05;1.90;;;0.60;99.90;;;;;;4844950;29;20125;-88
2022/03/31 05:31:48;;;;;;;6.60;1.92;;;0.60;99.90;;;;;;4845229;29;20029;-89
2022/03/31 05:34:14;;;;;;;3.15;1.60;;;0.50;99.90;;;;;;4845051;29;20064;-90
2022/03/31 05:36:40;;;;;;;5.47;1.92;;;0.60;99.90;;;;;;4844986;29;20496;-90
2022/03/31 05:39:06;;;;;;;6.65;1.90;;;0.50;99.90;;;;;;4845028;29;20025;-90
2022/03/31 05:41:32;;;;;;;3.53;1.25;;;0.50;99.90;;;;;;4845235;29;20021;-88
2022/03/31 05:43:59;;;;;;;8.48;1.65;;;0.50;99.90;;;;;;4861861;29;20078;-88
2022/03/31 05:46:25;;;;;;;5.70;2.08;;;0.50;99.90;;;;;;4844956;29;20037;-88
2022/03/31 05:48:52;;;;;;;5.65;1.95;;;0.50;99.90;;;;;;4844377;29;20144;-87
2022/03/31 05:51:18;;;;;;;2.38;1.48;;;0.40;99.90;;;;;;4845581;29;20030;-88
2022/03/31 05:53:44;;;;;;;9.70;1.77;;;0.40;99.90;;;;;;4845427;29;20045;-88
2022/03/31 05:56:10;;;;;;;6.40;1.90;;;0.40;99.90;;;;;;4844866;29;20021;-89
2022/03/31 05:58:36;;;;;;;4.38;1.63;;;0.40;99.90;;;;;;4845754;29;20026;-88
2022/03/31 06:01:01;;;;;;;7.82;1.67;;;0.40;99.90;;;;;;4845506;29;20025;-88
2022/03/31 06:03:27;;;;;;;7.80;1.80;;;0.40;99.90;;;;;;4844709;29;20029;-88
2022/03/31 06:05:53;;;;;;;3.35;1.45;;;0.40;99.90;;;;;;4847513;29;20034;-89
2022/03/31 06:08:19;;;;;;;3.95;1.50;;;0.40;99.90;;;;;;4845171;29;20056;-88
2022/03/31 06:10:46;;;;;;;3.20;1.45;;;0.30;99.90;;;;;;4844753;29;20025;-90
2022/03/31 06:13:12;;;;;;;1.67;1.25;;;0.30;99.90;;;;;;4861363;29;20116;-89
2022/03/31 06:15:38;;;;;;;5.28;1.85;;;0.30;99.90;;;;;;4845439;29;20022;-90
2022/03/31 06:18:06;;;;;;;2.20;1.50;;;0.30;99.90;;;;;;4844643;29;20083;-90
2022/03/31 06:20:34;;;;;;;2.33;1.40;;;0.30;99.90;;;;;;4845128;29;20050;-90
2022/03/31 06:23:00;;;;;;;3.05;1.20;;;0.30;99.90;;;;;;4845170;29;20049;-90
2022/03/31 06:25:27;;;;;;;3.00;1.48;;;0.30;99.90;;;;;;4846136;29;20029;-89
2022/03/31 06:28:48;;;;;;;2.05;1.00;;;0.30;99.90;;;;;;4865889;29;20041;-89
2022/03/31 06:31:14;;;;;;;3.25;1.17;;;0.30;99.90;;;;;;4836413;29;20065;-90
2022/03/31 06:33:40;;;;;;;4.20;1.30;;;0.30;99.90;;;;;;4852738;29;20029;-89
2022/03/31 06:36:06;;;;;;;0.70;0.70;;;0.30;99.90;;;;;;4853599;29;20115;-89
2022/03/31 06:38:32;;;;;;;2.40;1.02;;;0.30;99.90;;;;;;4851540;29;20029;-90
2022/03/31 06:41:10;;;;;;;1.20;0.88;;;0.30;99.90;;;;;;4848527;29;20101;-89
2022/03/31 06:43:37;;;;;;;1.90;1.20;;;0.30;99.90;;;;;;4844367;29;20057;-89
2022/03/31 06:46:03;;;;;;;2.15;1.15;;;0.30;99.90;;;;;;4845523;29;20038;-90
2022/03/31 06:48:30;;;;;;;2.28;1.15;;;0.30;99.90;;;;;;4847064;29;20137;-91
2022/03/31 06:50:59;;;;;;;1.70;0.98;;;0.30;99.90;;;;;;4847388;29;20175;-90
2022/03/31 06:53:25;;;;;;;2.70;1.25;;;0.30;99.90;;;;;;4842519;29;20033;-89
2022/03/31 06:55:52;;;;;;;4.15;1.00;;;0.30;99.90;;;;;;4848092;29;20050;-90
2022/03/31 06:58:18;;;;;;;3.40;1.25;;;0.30;99.90;;;;;;4846574;29;20129;-91
2022/03/31 07:00:44;;;;;;;4.68;1.30;;;0.30;99.90;;;;;;4849483;29;20040;-89
2022/03/31 07:03:10;;;;;;;4.53;1.75;;;0.40;99.90;;;;;;4851675;29;20092;-89
2022/03/31 07:05:37;;;;;;;1.83;1.00;;;0.40;99.90;;;;;;4857888;29;20041;-89
2022/03/31 07:08:04;;;;;;;7.53;2.45;;;0.50;99.90;;;;;;4858878;29;20037;-89
2022/03/31 07:10:29;;;;;;;5.90;2.08;;;0.50;99.90;;;;;;4854997;29;20022;-93
2022/03/31 07:12:55;;;;;;;4.80;1.67;;;0.50;99.90;;;;;;4857828;29;20116;-92
2022/03/31 07:15:22;;;;;;;4.38;1.73;;;0.60;99.90;;;;;;4854214;29;20036;-92
2022/03/31 09:08:13;;;;;;;2.85;1.15;;;2.70;99.90;;;;;;5662415;23;20046;-96
2022/03/31 09:10:47;;;;;;;1.67;0.90;;;2.80;99.90;;;;;;4846893;29;20119;-95
2022/03/31 09:13:36;;;;;;;2.60;1.15;;;2.90;99.90;;;;;;4832408;29;20026;-95
2022/03/31 09:16:04;;;;;;;7.22;2.35;;;3.00;99.90;;;;;;4830087;29;20022;-96
2022/03/31 09:18:32;;;;;;;1.88;0.98;;;3.10;99.90;;;;;;4829957;29;20042;-95
2022/03/31 09:20:59;;;;;;;3.75;1.70;;;3.20;99.90;;;;;;4847544;29;20471;-93
2022/03/31 09:23:31;;;;;;;4.18;1.30;;;3.40;99.90;;;;;;4829948;29;20033;-93
2022/03/31 09:26:09;;;;;;;5.25;1.15;;;3.40;99.90;;;;;;4841279;29;20037;-94
2022/03/31 14:39:37;;;;;;;1.10;0.55;;;5.00;98.80;;;;;;5832147;24;20561;-89
2022/03/31 14:42:04;;;;;;;0.82;0.70;;;4.70;99.70;;;;;;4835765;29;20054;-88
2022/03/31 14:44:31;;;;;;;2.22;1.27;;;4.70;99.90;;;;;;4843774;29;20034;-90
2022/03/31 14:46:57;;;;;;;2.80;1.65;;;4.80;99.90;;;;;;4844358;29;20045;-90
2022/03/31 14:49:23;;;;;;;1.38;0.77;;;4.90;99.90;;;;;;4843577;29;20038;-92
2022/03/31 14:51:50;;;;;;;3.42;1.33;;;5.00;99.90;;;;;;4844234;29;20107;-91
2022/03/31 14:54:17;;;;;;;4.10;1.40;;;4.90;99.90;;;;;;4842554;29;20063;-90
2022/03/31 14:56:43;;;;;;;2.35;1.10;;;4.90;99.90;;;;;;4847478;29;20339;-91
2022/03/31 14:59:10;;;;;;;1.75;0.80;;;4.80;99.90;;;;;;4848814;29;20078;-91
2022/03/31 15:01:49;;;;;;;2.35;1.00;;;4.80;99.90;;;;;;4839200;29;20030;-91
2022/03/31 15:04:16;;;;;;;4.30;0.90;;;5.00;99.90;;;;;;4840066;29;20022;-90
2022/03/31 15:06:56;;;;;;;1.58;1.10;;;5.40;99.90;;;;;;4838983;29;20044;-91
2022/03/31 15:14:51;;;;;;;3.65;1.00;;;6.90;99.90;;;;;;4854740;29;20090;-92
2022/03/31 15:17:18;;;;;;;3.15;1.77;;;7.30;99.90;;;;;;4838426;29;20034;-91
2022/03/31 15:19:45;;;;;;;2.10;1.27;;;7.70;99.90;;;;;;4839704;29;20029;-92
2022/03/31 15:22:19;;;;;;;2.47;1.13;;;8.10;99.90;;;;;;4834198;29;20026;-92
2022/03/31 15:24:45;;;;;;;2.25;1.05;;;8.40;99.90;;;;;;4828263;29;20026;-93
2022/03/31 15:27:11;;;;;;;6.10;1.88;;;8.60;99.90;;;;;;4816179;29;20038;-90
2022/03/31 15:29:38;;;;;;;1.55;1.00;;;8.70;99.70;;;;;;4814525;29;20045;-91
2022/03/31 15:35:25;;;;;;;7.18;1.50;;;8.70;98.40;;;;;;4792751;30;20387;-91
2022/03/31 15:37:50;;;;;;;3.45;1.27;;;8.80;98.30;;;;;;4797453;29;20091;-91
2022/03/31 15:40:28;;;;;;;7.07;1.42;;;8.90;98.10;;;;;;4814935;29;20513;-90
2022/03/31 15:42:54;;;;;;;6.32;1.20;;;8.80;97.60;;;;;;4817320;29;20035;-92
2022/03/31 15:45:20;;;;;;;4.03;1.90;;;8.70;97.60;;;;;;4820650;29;20026;-93
2022/03/31 15:47:46;;;;;;;5.03;1.48;;;8.50;97.60;;;;;;4817530;29;20103;-91
2022/03/31 15:50:42;;;;;;;5.10;1.60;;;8.30;97.60;;;;;;4814393;29;20103;-91
2022/03/31 15:53:12;;;;;;;3.78;1.60;;;7.90;97.70;;;;;;4809848;29;20394;-94
2022/03/31 15:55:38;;;;;;;5.13;2.33;;;7.40;98.00;;;;;;4827612;29;20027;-94
2022/03/31 15:58:04;;;;;;;4.93;1.80;;;7.00;98.50;;;;;;4820080;29;20065;-93
2022/03/31 16:00:30;;;;;;;6.05;1.48;;;6.70;99.40;;;;;;4815372;29;20019;-93
2022/03/31 16:03:00;;;;;;;4.43;2.30;;;6.60;99.90;;;;;;4800085;29;20073;-91
2022/03/31 16:05:26;;;;;;;5.75;1.58;;;6.50;99.90;;;;;;4812882;29;20102;-92
2022/03/31 16:08:46;;;;;;;4.63;1.00;;;6.50;99.90;;;;;;4814710;29;20074;-94
2022/03/31 16:11:15;;;;;;;2.88;1.30;;;6.70;99.90;;;;;;4743481;30;20034;-92
2022/03/31 16:13:44;;;;;;;3.50;0.73;;;7.00;99.90;;;;;;4757781;30;20037;-92
2022/03/31 16:16:11;;;;;;;5.57;0.60;;;7.30;99.90;;;;;;4737390;30;20197;-95
2022/03/31 16:18:40;;;;;;;1.45;0.75;;;7.50;99.00;;;;;;4745405;30;20036;-91
2022/03/31 16:21:11;;;;;;;5.60;1.00;;;7.70;98.10;;;;;;4748636;30;20032;-92
2022/03/31 16:23:43;;;;;;;2.92;1.30;;;7.70;97.20;;;;;;4741155;30;20029;-92
2022/03/31 16:26:18;;;;;;;1.80;0.60;;;7.80;96.40;;;;;;4739585;30;20071;-91
2022/03/31 16:28:48;;;;;;;1.50;0.70;;;7.90;96.00;;;;;;4753399;30;20483;-91
2022/03/31 16:31:14;;;;;;;4.18;0.60;;;8.00;95.60;;;;;;4753557;30;20125;-92
2022/03/31 16:33:41;;;;;;;6.07;0.80;;;8.00;94.60;;;;;;4750115;30;20474;-91
2022/03/31 16:36:09;;;;;;;0.90;0.40;;;8.00;94.30;;;;;;4753225;30;20037;-90
2022/03/31 16:38:35;;;;;;;2.80;0.70;;;8.00;93.90;;;;;;4738565;30;20043;-90
2022/03/31 16:41:07;;;;;;;4.10;0.55;;;8.00;93.50;;;;;;4752986;30;20604;-91
2022/03/31 16:43:33;;;;;;;1.25;0.65;;;8.00;92.70;;;;;;4737559;30;20044;-91
2022/03/31 16:45:59;;;;;;;2.13;0.60;;;8.00;92.60;;;;;;4799488;29;20194;-89
2022/03/31 16:48:26;;;;;;;5.18;0.80;;;8.00;92.30;;;;;;4811222;29;20034;-94
2022/03/31 16:51:19;;;;;;;;;;;;;;;;;;;;;
2022/03/31 16:53:51;;;;;;;3.13;0.50;;;8.00;91.80;;;;;;4829267;29;20117;-95
2022/03/31 16:56:43;;;;;;;1.00;0.40;;;7.90;91.60;;;;;;4798626;29;20035;-93
2022/03/31 16:59:12;;;;;;;3.08;0.80;;;7.80;91.10;;;;;;4778517;29;20035;-94
2022/03/31 17:01:53;;;;;;;4.13;0.80;;;7.70;90.70;;;;;;4810210;29;20058;-93
2022/03/31 17:04:23;;;;;;;;;;;7.60;90.60;;;;;;4812982;29;20086;-94
2022/03/31 17:06:48;;;;;;;2.08;0.60;;;7.50;90.60;;;;;;4811985;29;19967;-93
2022/03/31 17:09:14;;;;;;;1.85;0.75;;;7.40;90.80;;;;;;4812282;29;20026;-93
2022/03/31 17:11:40;;;;;;;6.25;1.50;;;7.30;91.00;;;;;;4812061;29;20042;-90
2022/03/31 17:14:06;;;;;;;3.63;0.80;;;7.20;91.20;;;;;;4810327;29;20167;-91
2022/03/31 17:16:32;;;;;;;1.90;0.82;;;7.10;91.40;;;;;;4811422;29;20034;-92
2022/03/31 17:18:57;;;;;;;1.63;1.25;;;7.00;91.50;;;;;;4811027;29;20043;-92
2022/03/31 17:21:23;;;;;;;2.75;1.17;;;6.80;91.80;;;;;;4817093;29;20027;-93
2022/03/31 17:23:50;;;;;;;5.75;1.50;;;6.60;92.10;;;;;;4817565;29;20031;-92
2022/03/31 17:26:17;;;;;;;5.40;1.27;;;6.50;92.40;;;;;;4814005;29;20034;-91
2022/03/31 17:28:44;;;;;;;7.88;3.45;;;6.30;92.90;;;;;;4812114;29;20041;-92
2022/03/31 17:31:09;;;;;;;5.88;2.22;;;6.30;93.40;;;;;;4811355;29;20031;-91
2022/03/31 17:33:35;;;;;;;3.38;1.38;;;6.20;93.80;;;;;;4802107;29;20034;-90
2022/03/31 17:36:03;;;;;;;1.92;0.85;;;6.30;94.40;;;;;;4813758;29;20030;-91
2022/03/31 17:38:29;;;;;;;3.05;1.58;;;6.40;94.70;;;;;;4821620;29;20034;-91
2022/03/31 17:40:55;;;;;;;2.67;1.20;;;6.30;94.60;;;;;;4801436;29;20050;-91
2022/03/31 17:43:22;;;;;;;1.50;1.00;;;6.30;94.60;;;;;;4809751;29;20022;-91
2022/03/31 17:45:52;;;;;;;2.58;0.90;;;6.20;94.50;;;;;;4805952;29;20042;-92
2022/03/31 17:48:22;;;;;;;6.00;1.27;;;6.20;94.50;;;;;;4805528;29;20074;-91
2022/03/31 17:50:48;;;;;;;4.85;0.80;;;6.10;94.70;;;;;;4804811;29;20041;-92
2022/03/31 17:53:14;;;;;;;3.78;1.02;;;6.20;94.90;;;;;;4805783;29;20134;-93
2022/03/31 17:55:42;;;;;;;3.17;0.88;;;6.10;95.00;;;;;;4805567;29;20113;-95
2022/03/31 17:58:09;;;;;;;3.42;0.90;;;6.20;95.20;;;;;;4810818;29;20049;-93
2022/03/31 18:00:37;;;;;;;2.78;0.70;;;6.10;95.10;;;;;;4808423;29;20027;-94
2022/03/31 18:03:04;;;;;;;2.47;0.95;;;6.00;95.10;;;;;;4809158;29;20041;-94
2022/03/31 18:05:33;;;;;;;2.03;0.95;;;5.80;95.30;;;;;;4806056;29;20500;-93
2022/03/31 18:08:00;;;;;;;4.20;2.10;;;5.60;95.70;;;;;;4810365;29;20485;-95
2022/03/31 18:10:26;;;;;;;4.85;1.65;;;5.60;96.30;;;;;;4815517;29;20043;-94
2022/03/31 18:12:54;;;;;;;3.90;1.40;;;5.40;96.40;;;;;;4816590;29;20062;-92
2022/03/31 18:15:21;;;;;;;4.55;0.85;;;5.30;96.50;;;;;;4809166;29;20031;-94
2022/03/31 18:17:48;;;;;;;4.57;1.40;;;5.00;96.20;;;;;;4815677;29;20039;-95
2022/03/31 18:20:17;;;;;;;3.50;1.20;;;4.80;96.10;;;;;;4810722;29;20042;-93
2022/03/31 18:22:44;;;;;;;2.20;1.30;;;4.60;96.40;;;;;;4814022;29;20022;-95
2022/03/31 18:25:13;;;;;;;5.53;1.52;;;4.50;96.90;;;;;;4812318;29;20113;-94
2022/03/31 18:27:40;;;;;;;2.97;1.45;;;4.30;97.10;;;;;;4810924;29;20046;-93
2022/03/31 18:35:39;;;;;;;4.30;2.60;;;4.20;98.00;;;;;;4827780;29;20129;-94
2022/03/31 18:38:07;;;;;;;5.78;2.90;;;4.10;98.20;;;;;;4812158;29;20039;-92
2022/03/31 18:40:33;;;;;;;5.60;2.78;;;4.10;98.40;;;;;;4809724;29;20086;-94
2022/03/31 18:42:59;;;;;;;4.05;1.42;;;4.10;98.60;;;;;;4812023;29;20133;-93
2022/03/31 18:45:25;;;;;;;1.40;0.95;;;4.10;98.80;;;;;;4811740;29;20103;-94
2022/03/31 18:47:52;;;;;;;4.43;1.38;;;4.10;98.80;;;;;;4812531;29;20497;-94
2022/03/31 18:50:20;;;;;;;6.72;1.85;;;4.00;98.90;;;;;;4815064;29;20035;-94
2022/03/31 18:52:46;;;;;;;5.43;1.55;;;3.90;99.20;;;;;;4816879;29;20485;-95
2022/03/31 18:55:13;;;;;;;9.30;3.15;;;3.90;99.50;;;;;;4829573;29;20030;-96
2022/03/31 18:57:41;;;;;;;4.85;2.33;;;3.90;99.60;;;;;;4833801;29;20054;-95
2022/03/31 19:00:10;;;;;;;6.00;2.15;;;3.90;99.90;;;;;;4828934;29;20187;-94
2022/03/31 19:02:37;;;;;;;2.67;1.08;;;3.90;99.90;;;;;;4820785;29;20030;-94
2022/03/31 19:05:04;;;;;;;1.65;0.98;;;3.90;99.90;;;;;;4820548;29;20132;-95
2022/03/31 19:07:30;;;;;;;4.05;1.00;;;3.80;99.90;;;;;;4826319;29;20070;-94
2022/03/31 19:09:56;;;;;;;2.80;1.38;;;3.70;99.90;;;;;;4823629;29;20052;-96
2022/03/31 19:12:26;;;;;;;2.30;0.95;;;3.70;99.90;;;;;;4821798;29;20034;-93
2022/03/31 19:14:52;;;;;;;4.80;1.50;;;3.60;99.90;;;;;;4822843;29;20033;-95
2022/03/31 19:17:18;;;;;;;1.83;1.00;;;3.60;99.90;;;;;;4822146;29;20035;-96
2022/03/31 19:19:44;;;;;;;4.32;1.13;;;3.50;99.90;;;;;;4820008;29;20034;-95
2022/03/31 19:22:13;;;;;;;4.43;2.25;;;3.60;99.90;;;;;;4828406;29;20091;-94
2022/03/31 19:24:39;;;;;;;5.97;2.83;;;3.50;99.90;;;;;;4821608;29;20026;-94
2022/03/31 19:27:04;;;;;;;6.10;3.95;;;3.50;99.90;;;;;;4845617;29;20093;-95
2022/03/31 19:29:30;;;;;;;5.53;1.73;;;3.60;99.90;;;;;;4825546;29;20022;-93
2022/03/31 19:31:56;;;;;;;7.18;2.88;;;3.50;99.90;;;;;;4823238;29;20038;-94
2022/03/31 19:34:23;;;;;;;6.88;2.95;;;3.50;99.90;;;;;;4819635;29;20026;-95
2022/03/31 19:36:49;;;;;;;3.72;1.25;;;3.50;99.90;;;;;;4804173;29;20030;-95
2022/03/31 19:39:15;;;;;;;2.60;1.17;;;3.40;99.90;;;;;;4824046;29;20083;-95
2022/03/31 19:41:44;;;;;;;5.00;1.08;;;3.40;99.90;;;;;;4823779;29;20063;-95
2022/03/31 19:46:59;;;;;;;4.47;1.10;;;3.30;99.90;;;;;;4891629;24;20073;-91
2022/03/31 19:49:29;;;;;;;10.60;1.70;;;3.20;99.90;;;;;;4849148;29;20029;-92
2022/03/31 19:51:55;;;;;;;6.50;1.67;;;3.20;99.90;;;;;;4852371;29;20032;-95
2022/03/31 19:54:25;;;;;;;1.65;1.00;;;3.20;99.90;;;;;;4867286;29;20081;-96
2022/03/31 19:56:52;;;;;;;12.95;5.30;;;3.10;99.90;;;;;;4832158;29;20098;-96
2022/03/31 19:59:18;;;;;;;5.30;1.60;;;3.10;99.90;;;;;;4847594;29;20026;-94
2022/03/31 20:01:44;;;;;;;6.13;1.77;;;3.00;99.90;;;;;;4848234;29;20025;-92
2022/03/31 20:04:12;;;;;;;8.18;2.05;;;3.00;99.90;;;;;;4864347;29;20036;-93
2022/03/31 20:06:38;;;;;;;5.40;1.80;;;2.90;99.90;;;;;;4847756;29;20041;-93
2022/03/31 20:09:03;;;;;;;5.18;1.40;;;2.90;99.90;;;;;;4848589;29;20025;-93
2022/03/31 20:11:30;;;;;;;5.32;1.20;;;2.80;99.90;;;;;;4849160;29;20030;-93
2022/03/31 20:13:56;;;;;;;3.30;1.00;;;2.80;99.90;;;;;;4849440;29;20038;-93
2022/03/31 20:16:22;;;;;;;5.57;1.23;;;2.70;99.90;;;;;;4849308;29;20061;-92
2022/03/31 20:18:47;;;;;;;2.90;1.08;;;2.70;99.90;;;;;;4847899;29;20034;-92
2022/03/31 20:21:13;;;;;;;7.03;1.20;;;2.60;99.90;;;;;;4864634;29;20476;-94